sensor_id;sensor_type;location;lat;lon;timestamp;pressure;altitude;pressure_sealevel;temperature;humidity
33625;BME280;19962;47.820;1.930;2023-02-24T00:01:38;100146.53;;;12.24;85.92
33625;BME280;19962;47.820;1.930;2023-02-24T00:04:07;100140.00;;;12.30;85.54
33625;BME280;19962;47.820;1.930;2023-02-24T00:06:35;100130.84;;;12.25;85.37
33625;BME280;19962;47.820;1.930;2023-02-24T00:09:13;100128.78;;;12.15;85.53
33625;BME280;19962;47.820;1.930;2023-02-24T00:12:05;100129.50;;;12.11;85.83
33625;BME280;19962;47.820;1.930;2023-02-24T00:14:36;100126.69;;;12.06;86.28
33625;BME280;19962;47.820;1.930;2023-02-24T00:17:03;100127.53;;;12.06;86.43
33625;BME280;19962;47.820;1.930;2023-02-24T00:19:31;100118.69;;;12.04;86.55
33625;BME280;19962;47.820;1.930;2023-02-24T00:21:57;100123.59;;;12.02;86.72
33625;BME280;19962;47.820;1.930;2023-02-24T00:24:25;100116.84;;;12.10;86.61
33625;BME280;19962;47.820;1.930;2023-02-24T00:26:53;100118.34;;;12.01;86.77
33625;BME280;19962;47.820;1.930;2023-02-24T00:29:20;100114.19;;;11.82;87.35
33625;BME280;19962;47.820;1.930;2023-02-24T00:31:50;100119.28;;;11.90;87.28
33625;BME280;19962;47.820;1.930;2023-02-24T00:34:34;100110.03;;;11.96;87.30
33625;BME280;19962;47.820;1.930;2023-02-24T00:37:02;100110.03;;;11.96;86.86
33625;BME280;19962;47.820;1.930;2023-02-24T00:39:28;100099.03;;;11.96;87.20
33625;BME280;19962;47.820;1.930;2023-02-24T00:41:55;100108.44;;;12.00;86.74
33625;BME280;19962;47.820;1.930;2023-02-24T00:44:33;100096.69;;;12.04;86.49
33625;BME280;19962;47.820;1.930;2023-02-24T00:47:00;100107.03;;;12.14;86.16
33625;BME280;19962;47.820;1.930;2023-02-24T00:49:28;100104.13;;;12.04;86.56
33625;BME280;19962;47.820;1.930;2023-02-24T00:51:54;100108.34;;;12.11;86.53
33625;BME280;19962;47.820;1.930;2023-02-24T00:54:21;100095.53;;;12.17;86.36
33625;BME280;19962;47.820;1.930;2023-02-24T00:56:50;100092.03;;;12.05;86.43
33625;BME280;19962;47.820;1.930;2023-02-24T00:59:17;100083.94;;;11.98;86.49
33625;BME280;19962;47.820;1.930;2023-02-24T01:01:48;100082.28;;;11.97;86.75
33625;BME280;19962;47.820;1.930;2023-02-24T01:04:17;100083.19;;;12.03;86.56
33625;BME280;19962;47.820;1.930;2023-02-24T01:06:48;100085.50;;;12.11;86.35
33625;BME280;19962;47.820;1.930;2023-02-24T01:09:18;100086.19;;;12.18;86.60
33625;BME280;19962;47.820;1.930;2023-02-24T01:11:46;100084.91;;;12.25;86.09
33625;BME280;19962;47.820;1.930;2023-02-24T01:14:33;100073.84;;;12.20;85.69
33625;BME280;19962;47.820;1.930;2023-02-24T01:17:00;100082.03;;;12.15;85.87
33625;BME280;19962;47.820;1.930;2023-02-24T01:19:28;100082.19;;;12.09;86.27
33625;BME280;19962;47.820;1.930;2023-02-24T01:22:07;100090.53;;;12.14;86.37
33625;BME280;19962;47.820;1.930;2023-02-24T01:24:37;100087.28;;;12.17;86.18
33625;BME280;19962;47.820;1.930;2023-02-24T01:27:04;100085.34;;;12.17;86.10
33625;BME280;19962;47.820;1.930;2023-02-24T01:29:31;100082.84;;;12.16;86.05
33625;BME280;19962;47.820;1.930;2023-02-24T01:31:57;100076.09;;;12.23;85.82
33625;BME280;19962;47.820;1.930;2023-02-24T01:34:25;100068.75;;;12.29;85.72
33625;BME280;19962;47.820;1.930;2023-02-24T01:36:51;100069.53;;;12.08;85.70
33625;BME280;19962;47.820;1.930;2023-02-24T01:39:17;100071.75;;;12.11;86.30
33625;BME280;19962;47.820;1.930;2023-02-24T01:41:45;100072.69;;;12.16;86.19
33625;BME280;19962;47.820;1.930;2023-02-24T01:46:41;100066.22;;;12.27;85.42
33625;BME280;19962;47.820;1.930;2023-02-24T01:54:18;100060.72;;;12.27;85.62
33625;BME280;19962;47.820;1.930;2023-02-24T01:56:50;100053.56;;;12.26;85.12
33625;BME280;19962;47.820;1.930;2023-02-24T01:59:18;100062.06;;;12.25;85.60
33625;BME280;19962;47.820;1.930;2023-02-24T02:01:45;100058.69;;;12.18;85.67
33625;BME280;19962;47.820;1.930;2023-02-24T02:07:02;100056.06;;;12.28;85.47
33625;BME280;19962;47.820;1.930;2023-02-24T02:09:29;100060.16;;;12.25;85.43
33625;BME280;19962;47.820;1.930;2023-02-24T02:11:55;100055.00;;;12.29;85.25
33625;BME280;19962;47.820;1.930;2023-02-24T02:14:23;100046.72;;;12.29;85.22
33625;BME280;19962;47.820;1.930;2023-02-24T02:34:56;100027.13;;;12.04;86.00
33625;BME280;19962;47.820;1.930;2023-02-24T02:37:07;100028.38;;;12.13;86.06
33625;BME280;19962;47.820;1.930;2023-02-24T02:45:18;100003.63;;;12.13;86.03
33625;BME280;19962;47.820;1.930;2023-02-24T02:47:50;100008.94;;;12.19;85.59
33625;BME280;19962;47.820;1.930;2023-02-24T02:50:47;100002.28;;;12.15;85.46
33625;BME280;19962;47.820;1.930;2023-02-24T02:53:21;100007.00;;;12.20;85.36
33625;BME280;19962;47.820;1.930;2023-02-24T02:56:02;100006.38;;;12.13;85.33
33625;BME280;19962;47.820;1.930;2023-02-24T02:58:36;100004.47;;;11.97;85.77
33625;BME280;19962;47.820;1.930;2023-02-24T03:01:04;100009.41;;;11.95;86.21
33625;BME280;19962;47.820;1.930;2023-02-24T03:03:38;100003.38;;;11.98;86.44
33625;BME280;19962;47.820;1.930;2023-02-24T03:06:11;99994.63;;;12.01;86.20
33625;BME280;19962;47.820;1.930;2023-02-24T03:08:43;99991.97;;;12.06;85.86
33625;BME280;19962;47.820;1.930;2023-02-24T03:11:16;99993.38;;;12.08;85.72
33625;BME280;19962;47.820;1.930;2023-02-24T03:13:47;99991.22;;;11.94;86.12
33625;BME280;19962;47.820;1.930;2023-02-24T03:16:16;99993.91;;;11.89;86.09
33625;BME280;19962;47.820;1.930;2023-02-24T03:18:48;99985.41;;;11.90;86.29
33625;BME280;19962;47.820;1.930;2023-02-24T03:21:29;99992.91;;;11.95;86.21
33625;BME280;19962;47.820;1.930;2023-02-24T03:23:59;99984.66;;;11.95;85.86
33625;BME280;19962;47.820;1.930;2023-02-24T03:26:30;99993.22;;;11.98;85.64
33625;BME280;19962;47.820;1.930;2023-02-24T03:29:10;99985.47;;;11.95;86.08
33625;BME280;19962;47.820;1.930;2023-02-24T03:34:44;99990.63;;;12.08;85.36
33625;BME280;19962;47.820;1.930;2023-02-24T03:37:13;99990.88;;;12.07;85.37
33625;BME280;19962;47.820;1.930;2023-02-24T03:39:40;99987.88;;;12.08;85.36
33625;BME280;19962;47.820;1.930;2023-02-24T03:42:12;99983.06;;;11.99;84.96
33625;BME280;19962;47.820;1.930;2023-02-24T03:44:40;99979.22;;;12.00;85.58
33625;BME280;19962;47.820;1.930;2023-02-24T03:47:06;99974.91;;;12.04;85.55
33625;BME280;19962;47.820;1.930;2023-02-24T03:49:34;99973.56;;;12.06;85.21
33625;BME280;19962;47.820;1.930;2023-02-24T03:55:15;99974.13;;;12.08;84.35
33625;BME280;19962;47.820;1.930;2023-02-24T03:57:58;99982.91;;;11.89;84.91
33625;BME280;19962;47.820;1.930;2023-02-24T04:03:32;99980.41;;;11.87;85.48
33625;BME280;19962;47.820;1.930;2023-02-24T04:06:19;99977.41;;;11.89;85.46
33625;BME280;19962;47.820;1.930;2023-02-24T04:08:49;99971.41;;;11.92;85.33
33625;BME280;19962;47.820;1.930;2023-02-24T04:11:26;99972.16;;;12.04;84.70
33625;BME280;19962;47.820;1.930;2023-02-24T04:14:09;99969.59;;;11.97;84.14
33625;BME280;19962;47.820;1.930;2023-02-24T04:16:44;99959.03;;;11.73;84.94
33625;BME280;19962;47.820;1.930;2023-02-24T04:19:17;99957.63;;;11.70;85.42
33625;BME280;19962;47.820;1.930;2023-02-24T04:21:46;99944.78;;;11.76;85.49
33625;BME280;19962;47.820;1.930;2023-02-24T04:24:15;99944.34;;;11.84;85.03
33625;BME280;19962;47.820;1.930;2023-02-24T04:26:45;99950.81;;;11.73;85.19
33625;BME280;19962;47.820;1.930;2023-02-24T04:29:20;99947.31;;;11.61;85.43
33625;BME280;19962;47.820;1.930;2023-02-24T04:31:51;99943.28;;;11.52;86.01
33625;BME280;19962;47.820;1.930;2023-02-24T04:34:18;99932.63;;;11.55;85.48
33625;BME280;19962;47.820;1.930;2023-02-24T04:36:48;99936.53;;;11.59;85.60
33625;BME280;19962;47.820;1.930;2023-02-24T04:39:18;99941.72;;;11.56;85.24
33625;BME280;19962;47.820;1.930;2023-02-24T04:41:46;99941.63;;;11.51;85.23
33625;BME280;19962;47.820;1.930;2023-02-24T04:44:15;99937.06;;;11.56;85.50
33625;BME280;19962;47.820;1.930;2023-02-24T04:46:43;99936.78;;;11.58;84.72
33625;BME280;19962;47.820;1.930;2023-02-24T04:49:10;99932.38;;;11.57;84.71
33625;BME280;19962;47.820;1.930;2023-02-24T04:51:37;99929.06;;;11.38;84.80
33625;BME280;19962;47.820;1.930;2023-02-24T04:54:08;99931.31;;;11.41;85.05
33625;BME280;19962;47.820;1.930;2023-02-24T04:56:35;99916.84;;;11.46;85.01
33625;BME280;19962;47.820;1.930;2023-02-24T04:59:02;99924.13;;;11.57;85.14
33625;BME280;19962;47.820;1.930;2023-02-24T05:01:29;99915.50;;;11.65;84.10
33625;BME280;19962;47.820;1.930;2023-02-24T05:03:56;99918.31;;;11.53;83.45
33625;BME280;19962;47.820;1.930;2023-02-24T05:06:22;99916.25;;;11.44;84.38
33625;BME280;19962;47.820;1.930;2023-02-24T05:08:48;99900.34;;;11.46;84.42
33625;BME280;19962;47.820;1.930;2023-02-24T05:11:17;99894.03;;;11.29;84.78
33625;BME280;19962;47.820;1.930;2023-02-24T05:13:44;99884.72;;;11.30;85.03
33625;BME280;19962;47.820;1.930;2023-02-24T05:16:12;99878.47;;;11.18;85.24
33625;BME280;19962;47.820;1.930;2023-02-24T05:18:39;99882.22;;;11.28;85.20
33625;BME280;19962;47.820;1.930;2023-02-24T05:21:10;99890.53;;;11.33;84.63
33625;BME280;19962;47.820;1.930;2023-02-24T05:23:55;99901.34;;;11.40;84.46
33625;BME280;19962;47.820;1.930;2023-02-24T05:26:23;99896.53;;;11.47;84.42
33625;BME280;19962;47.820;1.930;2023-02-24T05:28:53;99887.53;;;11.35;84.07
33625;BME280;19962;47.820;1.930;2023-02-24T05:31:23;99903.94;;;11.30;84.42
33625;BME280;19962;47.820;1.930;2023-02-24T05:33:55;99903.44;;;11.33;84.11
33625;BME280;19962;47.820;1.930;2023-02-24T05:36:26;99896.38;;;11.37;84.25
33625;BME280;19962;47.820;1.930;2023-02-24T05:38:55;99886.56;;;11.41;83.90
33625;BME280;19962;47.820;1.930;2023-02-24T05:41:29;99902.00;;;11.47;83.68
33625;BME280;19962;47.820;1.930;2023-02-24T05:44:02;99900.69;;;11.49;83.59
33625;BME280;19962;47.820;1.930;2023-02-24T05:46:36;99899.03;;;11.48;83.65
33625;BME280;19962;47.820;1.930;2023-02-24T05:49:05;99907.16;;;11.27;83.89
33625;BME280;19962;47.820;1.930;2023-02-24T05:51:35;99894.38;;;11.16;84.28
33625;BME280;19962;47.820;1.930;2023-02-24T05:54:09;99900.28;;;11.08;84.94
33625;BME280;19962;47.820;1.930;2023-02-24T05:56:38;99901.53;;;11.17;84.65
33625;BME280;19962;47.820;1.930;2023-02-24T05:59:06;99899.09;;;11.20;84.28
33625;BME280;19962;47.820;1.930;2023-02-24T06:01:38;99898.38;;;11.25;84.59
33625;BME280;19962;47.820;1.930;2023-02-24T06:04:07;99891.88;;;11.31;84.24
33625;BME280;19962;47.820;1.930;2023-02-24T06:06:35;99900.78;;;11.38;83.75
33625;BME280;19962;47.820;1.930;2023-02-24T06:09:10;99889.19;;;11.36;83.80
33625;BME280;19962;47.820;1.930;2023-02-24T06:11:38;99892.84;;;11.41;83.41
33625;BME280;19962;47.820;1.930;2023-02-24T06:14:09;99878.88;;;11.43;83.43
33625;BME280;19962;47.820;1.930;2023-02-24T06:16:36;99887.84;;;11.38;83.67
33625;BME280;19962;47.820;1.930;2023-02-24T06:19:05;99877.22;;;11.42;83.33
33625;BME280;19962;47.820;1.930;2023-02-24T06:21:35;99866.09;;;11.32;83.44
33625;BME280;19962;47.820;1.930;2023-02-24T06:24:02;99867.81;;;11.38;83.58
33625;BME280;19962;47.820;1.930;2023-02-24T06:26:28;99871.13;;;11.40;83.44
33625;BME280;19962;47.820;1.930;2023-02-24T06:28:59;99870.06;;;11.41;83.22
33625;BME280;19962;47.820;1.930;2023-02-24T06:31:26;99866.16;;;11.37;83.29
33625;BME280;19962;47.820;1.930;2023-02-24T06:33:54;99866.72;;;11.39;83.63
33625;BME280;19962;47.820;1.930;2023-02-24T06:36:21;99875.03;;;11.44;83.41
33625;BME280;19962;47.820;1.930;2023-02-24T06:38:48;99875.47;;;11.52;83.28
33625;BME280;19962;47.820;1.930;2023-02-24T06:41:15;99874.78;;;11.45;82.44
33625;BME280;19962;47.820;1.930;2023-02-24T06:43:42;99870.50;;;11.33;83.13
33625;BME280;19962;47.820;1.930;2023-02-24T06:46:12;99870.25;;;11.34;83.16
33625;BME280;19962;47.820;1.930;2023-02-24T06:48:38;99867.56;;;11.39;83.63
33625;BME280;19962;47.820;1.930;2023-02-24T06:51:10;99873.88;;;11.40;83.21
33625;BME280;19962;47.820;1.930;2023-02-24T06:53:38;99880.03;;;11.47;83.17
33625;BME280;19962;47.820;1.930;2023-02-24T06:56:13;99877.66;;;11.34;83.22
33625;BME280;19962;47.820;1.930;2023-02-24T06:58:43;99876.63;;;11.40;83.38
33625;BME280;19962;47.820;1.930;2023-02-24T07:01:12;99883.03;;;11.45;83.02
33625;BME280;19962;47.820;1.930;2023-02-24T07:03:39;99881.38;;;11.44;83.05
33625;BME280;19962;47.820;1.930;2023-02-24T07:06:09;99881.22;;;11.34;83.25
33625;BME280;19962;47.820;1.930;2023-02-24T07:08:49;99877.56;;;11.29;83.05
33625;BME280;19962;47.820;1.930;2023-02-24T07:11:17;99879.06;;;11.20;83.31
33625;BME280;19962;47.820;1.930;2023-02-24T07:13:44;99866.91;;;11.32;83.68
33625;BME280;19962;47.820;1.930;2023-02-24T07:16:17;99875.97;;;11.33;83.15
33625;BME280;19962;47.820;1.930;2023-02-24T07:18:44;99872.72;;;11.36;82.79
33625;BME280;19962;47.820;1.930;2023-02-24T07:21:14;99873.25;;;11.33;83.30
33625;BME280;19962;47.820;1.930;2023-02-24T07:23:43;99875.63;;;11.46;83.39
33625;BME280;19962;47.820;1.930;2023-02-24T07:26:12;99878.94;;;11.48;83.06
33625;BME280;19962;47.820;1.930;2023-02-24T07:28:40;99875.19;;;11.54;82.59
33625;BME280;19962;47.820;1.930;2023-02-24T07:31:08;99868.03;;;11.53;82.57
33625;BME280;19962;47.820;1.930;2023-02-24T07:33:38;99863.84;;;11.29;82.60
33625;BME280;19962;47.820;1.930;2023-02-24T07:36:06;99858.59;;;11.11;83.69
33625;BME280;19962;47.820;1.930;2023-02-24T07:38:38;99868.66;;;11.22;83.80
33625;BME280;19962;47.820;1.930;2023-02-24T07:41:05;99865.50;;;11.30;83.69
33625;BME280;19962;47.820;1.930;2023-02-24T07:43:33;99866.81;;;11.44;83.09
33625;BME280;19962;47.820;1.930;2023-02-24T07:46:14;99851.16;;;11.44;83.20
33625;BME280;19962;47.820;1.930;2023-02-24T07:48:42;99859.84;;;11.58;82.80
33625;BME280;19962;47.820;1.930;2023-02-24T07:51:09;99859.84;;;11.58;82.71
33625;BME280;19962;47.820;1.930;2023-02-24T07:53:37;99857.97;;;11.58;82.50
33625;BME280;19962;47.820;1.930;2023-02-24T07:56:15;99853.22;;;11.54;82.08
33625;BME280;19962;47.820;1.930;2023-02-24T07:58:45;99845.09;;;11.26;82.90
33625;BME280;19962;47.820;1.930;2023-02-24T08:01:17;99847.38;;;11.29;83.62
33625;BME280;19962;47.820;1.930;2023-02-24T08:03:51;99841.63;;;11.30;83.59
33625;BME280;19962;47.820;1.930;2023-02-24T08:06:24;99846.47;;;11.45;83.56
33625;BME280;19962;47.820;1.930;2023-02-24T08:09:04;99832.84;;;11.50;83.45
33625;BME280;19962;47.820;1.930;2023-02-24T08:11:55;99844.06;;;11.65;82.61
33625;BME280;19962;47.820;1.930;2023-02-24T08:14:27;99840.88;;;11.73;82.49
33625;BME280;19962;47.820;1.930;2023-02-24T08:16:58;99840.34;;;11.76;82.48
33625;BME280;19962;47.820;1.930;2023-02-24T08:19:29;99840.88;;;11.73;82.23
33625;BME280;19962;47.820;1.930;2023-02-24T08:22:06;99842.97;;;11.66;82.23
33625;BME280;19962;47.820;1.930;2023-02-24T08:24:55;99838.97;;;11.57;82.72
33625;BME280;19962;47.820;1.930;2023-02-24T08:27:26;99836.63;;;11.27;83.39
33625;BME280;19962;47.820;1.930;2023-02-24T08:29:55;99842.09;;;11.44;83.91
33625;BME280;19962;47.820;1.930;2023-02-24T08:32:40;99844.97;;;11.54;83.65
33625;BME280;19962;47.820;1.930;2023-02-24T08:35:13;99849.97;;;11.57;83.12
33625;BME280;19962;47.820;1.930;2023-02-24T08:37:45;99841.88;;;11.67;83.38
33625;BME280;19962;47.820;1.930;2023-02-24T08:42:59;99843.25;;;11.86;82.03
33625;BME280;19962;47.820;1.930;2023-02-24T08:45:34;99835.53;;;11.83;81.97
33625;BME280;19962;47.820;1.930;2023-02-24T08:48:03;99843.81;;;11.88;81.94
33625;BME280;19962;47.820;1.930;2023-02-24T08:50:43;99834.56;;;11.72;82.15
33625;BME280;19962;47.820;1.930;2023-02-24T08:53:11;99840.22;;;11.87;82.29
33625;BME280;19962;47.820;1.930;2023-02-24T08:55:44;99829.13;;;11.99;81.78
33625;BME280;19962;47.820;1.930;2023-02-24T08:58:11;99833.47;;;11.95;81.72
33625;BME280;19962;47.820;1.930;2023-02-24T09:00:44;99838.50;;;12.03;81.16
33625;BME280;19962;47.820;1.930;2023-02-24T09:03:20;99830.91;;;12.10;81.02
33625;BME280;19962;47.820;1.930;2023-02-24T09:06:04;99827.44;;;11.98;80.49
33625;BME280;19962;47.820;1.930;2023-02-24T09:08:35;99826.72;;;11.81;81.50
33625;BME280;19962;47.820;1.930;2023-02-24T09:11:08;99822.41;;;11.68;81.61
33625;BME280;19962;47.820;1.930;2023-02-24T09:13:36;99827.78;;;11.80;81.60
33625;BME280;19962;47.820;1.930;2023-02-24T09:16:08;99820.56;;;11.74;81.59
33625;BME280;19962;47.820;1.930;2023-02-24T09:18:42;99812.13;;;11.80;81.75
33625;BME280;19962;47.820;1.930;2023-02-24T09:21:12;99814.88;;;11.80;81.96
33625;BME280;19962;47.820;1.930;2023-02-24T09:23:58;99815.06;;;11.74;82.33
33625;BME280;19962;47.820;1.930;2023-02-24T09:26:28;99819.03;;;11.83;81.91
33625;BME280;19962;47.820;1.930;2023-02-24T09:28:59;99810.22;;;11.81;81.88
33625;BME280;19962;47.820;1.930;2023-02-24T09:31:25;99811.28;;;11.80;81.76
33625;BME280;19962;47.820;1.930;2023-02-24T09:34:07;99809.50;;;11.69;82.24
33625;BME280;19962;47.820;1.930;2023-02-24T09:36:35;99823.88;;;11.76;81.94
33625;BME280;19962;47.820;1.930;2023-02-24T09:39:10;99811.75;;;11.72;82.27
33625;BME280;19962;47.820;1.930;2023-02-24T09:41:47;99823.69;;;11.82;81.98
33625;BME280;19962;47.820;1.930;2023-02-24T09:44:51;99823.03;;;11.97;81.52
33625;BME280;19962;47.820;1.930;2023-02-24T09:52:53;99816.84;;;11.85;81.77
33625;BME280;19962;47.820;1.930;2023-02-24T10:06:45;99796.44;;;12.02;81.33
33625;BME280;19962;47.820;1.930;2023-02-24T10:14:59;99802.91;;;12.39;79.89
33625;BME280;19962;47.820;1.930;2023-02-24T10:17:52;99794.47;;;12.51;79.43
33625;BME280;19962;47.820;1.930;2023-02-24T10:20:22;99807.03;;;12.42;79.57
33625;BME280;19962;47.820;1.930;2023-02-24T10:28:45;99798.53;;;12.43;79.47
33625;BME280;19962;47.820;1.930;2023-02-24T10:31:31;99793.34;;;12.47;79.36
33625;BME280;19962;47.820;1.930;2023-02-24T10:34:12;99803.34;;;12.31;79.47
33625;BME280;19962;47.820;1.930;2023-02-24T10:36:45;99796.59;;;12.39;79.49
33625;BME280;19962;47.820;1.930;2023-02-24T10:39:16;99804.69;;;12.02;80.16
33625;BME280;19962;47.820;1.930;2023-02-24T10:41:55;99780.50;;;12.04;80.78
33625;BME280;19962;47.820;1.930;2023-02-24T10:44:44;99785.47;;;12.29;80.25
33625;BME280;19962;47.820;1.930;2023-02-24T10:47:26;99790.84;;;12.19;79.88
33625;BME280;19962;47.820;1.930;2023-02-24T10:49:58;99798.56;;;12.17;80.63
33625;BME280;19962;47.820;1.930;2023-02-24T10:55:04;99790.50;;;12.37;80.00
33625;BME280;19962;47.820;1.930;2023-02-24T10:57:42;99790.75;;;12.35;80.11
33625;BME280;19962;47.820;1.930;2023-02-24T11:00:17;99792.66;;;12.30;80.00
33625;BME280;19962;47.820;1.930;2023-02-24T11:03:16;99795.94;;;12.32;80.00
33625;BME280;19962;47.820;1.930;2023-02-24T11:05:50;99798.66;;;12.27;80.44
33625;BME280;19962;47.820;1.930;2023-02-24T11:08:30;99799.69;;;12.21;80.17
33625;BME280;19962;47.820;1.930;2023-02-24T11:11:20;99805.19;;;12.21;80.97
33625;BME280;19962;47.820;1.930;2023-02-24T11:13:58;99797.56;;;12.28;80.67
33625;BME280;19962;47.820;1.930;2023-02-24T11:16:53;99797.59;;;12.33;80.24
33625;BME280;19962;47.820;1.930;2023-02-24T11:19:46;99799.34;;;12.39;80.11
33625;BME280;19962;47.820;1.930;2023-02-24T11:22:21;99794.19;;;12.21;80.82
33625;BME280;19962;47.820;1.930;2023-02-24T11:24:49;99803.09;;;12.33;80.66
33625;BME280;19962;47.820;1.930;2023-02-24T11:27:20;99786.94;;;12.36;80.72
33625;BME280;19962;47.820;1.930;2023-02-24T11:30:08;99784.09;;;12.31;80.12
33625;BME280;19962;47.820;1.930;2023-02-24T11:33:08;99786.66;;;12.38;79.94
33625;BME280;19962;47.820;1.930;2023-02-24T11:38:44;99773.53;;;12.45;79.64
33625;BME280;19962;47.820;1.930;2023-02-24T11:41:33;99769.16;;;12.49;79.61
33625;BME280;19962;47.820;1.930;2023-02-24T11:44:20;99762.59;;;12.55;79.23
33625;BME280;19962;47.820;1.930;2023-02-24T11:46:52;99763.41;;;12.50;79.29
33625;BME280;19962;47.820;1.930;2023-02-24T11:49:54;99756.22;;;12.49;79.51
33625;BME280;19962;47.820;1.930;2023-02-24T11:52:33;99755.88;;;12.41;80.07
33625;BME280;19962;47.820;1.930;2023-02-24T11:55:02;99757.91;;;12.24;81.26
33625;BME280;19962;47.820;1.930;2023-02-24T11:57:47;99757.53;;;12.42;81.01
33625;BME280;19962;47.820;1.930;2023-02-24T12:00:22;99737.72;;;12.40;80.52
33625;BME280;19962;47.820;1.930;2023-02-24T12:02:56;99728.66;;;12.44;80.88
33625;BME280;19962;47.820;1.930;2023-02-24T12:05:29;99728.50;;;12.56;80.83
33625;BME280;19962;47.820;1.930;2023-02-24T12:08:27;99725.09;;;12.44;81.58
33625;BME280;19962;47.820;1.930;2023-02-24T12:11:05;99716.63;;;12.50;81.42
33625;BME280;19962;47.820;1.930;2023-02-24T12:13:47;99715.28;;;12.53;81.46
33625;BME280;19962;47.820;1.930;2023-02-24T12:16:29;99711.97;;;12.56;81.51
33625;BME280;19962;47.820;1.930;2023-02-24T12:19:14;99706.88;;;12.69;81.32
33625;BME280;19962;47.820;1.930;2023-02-24T12:21:57;99699.25;;;12.81;80.47
33625;BME280;19962;47.820;1.930;2023-02-24T12:24:25;99697.63;;;12.85;80.75
33625;BME280;19962;47.820;1.930;2023-02-24T12:30:27;99696.09;;;12.99;80.46
33625;BME280;19962;47.820;1.930;2023-02-24T12:33:38;99686.38;;;12.92;80.22
33625;BME280;19962;47.820;1.930;2023-02-24T12:36:37;99689.63;;;12.79;80.67
33625;BME280;19962;47.820;1.930;2023-02-24T12:39:14;99674.94;;;12.68;80.95
33625;BME280;19962;47.820;1.930;2023-02-24T12:47:23;99656.03;;;12.82;80.87
33625;BME280;19962;47.820;1.930;2023-02-24T12:50:04;99661.03;;;12.90;80.54
33625;BME280;19962;47.820;1.930;2023-02-24T12:52:53;99647.91;;;12.97;79.51
33625;BME280;19962;47.820;1.930;2023-02-24T12:55:30;99649.59;;;13.03;79.37
33625;BME280;19962;47.820;1.930;2023-02-24T12:58:21;99646.53;;;12.99;79.34
33625;BME280;19962;47.820;1.930;2023-02-24T13:08:49;99631.44;;;13.07;78.94
33625;BME280;19962;47.820;1.930;2023-02-24T13:16:41;99617.06;;;13.00;79.09
33625;BME280;19962;47.820;1.930;2023-02-24T13:19:21;99612.72;;;13.14;78.43
33625;BME280;19962;47.820;1.930;2023-02-24T13:27:34;99609.91;;;12.99;78.42
33625;BME280;19962;47.820;1.930;2023-02-24T13:32:42;99606.13;;;13.10;78.75
33625;BME280;19962;47.820;1.930;2023-02-24T13:37:46;99608.34;;;13.23;77.83
33625;BME280;19962;47.820;1.930;2023-02-24T13:45:23;99605.06;;;13.21;77.18
33625;BME280;19962;47.820;1.930;2023-02-24T13:48:36;99599.53;;;13.16;77.13
33625;BME280;19962;47.820;1.930;2023-02-24T13:59:37;99604.78;;;13.17;76.60
33625;BME280;19962;47.820;1.930;2023-02-24T14:01:59;99601.19;;;13.17;76.91
33625;BME280;19962;47.820;1.930;2023-02-24T14:04:34;99588.25;;;13.17;76.57
33625;BME280;19962;47.820;1.930;2023-02-24T14:07:14;99587.38;;;13.02;76.75
33625;BME280;19962;47.820;1.930;2023-02-24T14:09:46;99584.50;;;12.87;77.59
33625;BME280;19962;47.820;1.930;2023-02-24T14:12:19;99596.63;;;12.96;77.50
33625;BME280;19962;47.820;1.930;2023-02-24T14:14:49;99590.09;;;12.97;77.51
33625;BME280;19962;47.820;1.930;2023-02-24T14:17:27;99597.25;;;12.98;77.15
33625;BME280;19962;47.820;1.930;2023-02-24T14:20:17;99595.03;;;13.00;77.28
33625;BME280;19962;47.820;1.930;2023-02-24T14:25:11;99601.91;;;12.97;77.13
33625;BME280;19962;47.820;1.930;2023-02-24T14:27:38;99590.09;;;12.97;77.22
33625;BME280;19962;47.820;1.930;2023-02-24T14:30:05;99587.88;;;12.99;77.05
33625;BME280;19962;47.820;1.930;2023-02-24T14:32:33;99581.22;;;12.95;77.06
33625;BME280;19962;47.820;1.930;2023-02-24T14:34:59;99586.72;;;12.90;77.27
33625;BME280;19962;47.820;1.930;2023-02-24T14:37:29;99580.66;;;12.88;77.37
33625;BME280;19962;47.820;1.930;2023-02-24T14:39:58;99570.19;;;12.90;77.57
33625;BME280;19962;47.820;1.930;2023-02-24T14:42:25;99565.88;;;12.99;77.45
33625;BME280;19962;47.820;1.930;2023-02-24T14:44:54;99573.03;;;13.00;77.14
33625;BME280;19962;47.820;1.930;2023-02-24T14:47:23;99573.50;;;12.92;77.37
33625;BME280;19962;47.820;1.930;2023-02-24T14:49:58;99568.56;;;12.89;77.64
33625;BME280;19962;47.820;1.930;2023-02-24T14:57:46;99555.84;;;12.83;77.67
33625;BME280;19962;47.820;1.930;2023-02-24T15:00:20;99548.69;;;12.87;77.67
33625;BME280;19962;47.820;1.930;2023-02-24T15:02:55;99556.44;;;12.90;77.58
33625;BME280;19962;47.820;1.930;2023-02-24T15:05:22;99557.88;;;12.97;77.30
33625;BME280;19962;47.820;1.930;2023-02-24T15:07:48;99563.13;;;13.04;77.21
33625;BME280;19962;47.820;1.930;2023-02-24T15:10:23;99559.56;;;13.08;77.12
33625;BME280;19962;47.820;1.930;2023-02-24T15:13:17;99549.94;;;13.06;77.00
33625;BME280;19962;47.820;1.930;2023-02-24T15:15:46;99546.63;;;13.14;77.13
33625;BME280;19962;47.820;1.930;2023-02-24T15:18:24;99546.63;;;13.14;76.68
33625;BME280;19962;47.820;1.930;2023-02-24T15:21:05;99537.81;;;13.02;77.10
33625;BME280;19962;47.820;1.930;2023-02-24T15:23:36;99540.56;;;13.02;77.01
33625;BME280;19962;47.820;1.930;2023-02-24T15:26:05;99534.22;;;13.06;77.18
33625;BME280;19962;47.820;1.930;2023-02-24T15:28:37;99535.59;;;13.09;77.58
33625;BME280;19962;47.820;1.930;2023-02-24T15:31:16;99536.72;;;13.08;77.23
33625;BME280;19962;47.820;1.930;2023-02-24T15:33:46;99526.81;;;13.07;77.56
33625;BME280;19962;47.820;1.930;2023-02-24T15:36:22;99524.31;;;13.10;77.30
33625;BME280;19962;47.820;1.930;2023-02-24T15:38:55;99525.97;;;13.11;77.08
33625;BME280;19962;47.820;1.930;2023-02-24T15:41:22;99535.56;;;12.99;77.23
33625;BME280;19962;47.820;1.930;2023-02-24T15:43:51;99534.16;;;12.96;77.43